createdAt,value
2024-03-16T00:00:44.429Z,21.50
2024-03-16T00:03:11.147Z,26.25
2024-03-16T00:05:38.790Z,23.50
2024-03-16T00:08:06.386Z,24.25
2024-03-16T00:10:33.093Z,16.50
2024-03-16T00:12:59.785Z,20.50
2024-03-16T00:15:26.601Z,8.50
2024-03-16T00:17:54.481Z,11.75
2024-03-16T00:20:21.181Z,30.00
2024-03-16T00:22:48.132Z,20.75
2024-03-16T00:25:16.029Z,21.25
2024-03-16T00:27:42.858Z,22.00
2024-03-16T00:30:11.431Z,21.75
2024-03-16T00:32:39.669Z,19.50
2024-03-16T00:35:06.457Z,15.50
2024-03-16T00:37:33.386Z,33.75
2024-03-16T00:40:00.009Z,39.50
2024-03-16T00:42:27.090Z,11.75
2024-03-16T00:44:53.950Z,34.00
2024-03-16T00:47:20.543Z,28.75
2024-03-16T00:49:47.138Z,74.33
2024-03-16T00:52:13.785Z,76.00
2024-03-16T00:54:40.700Z,67.67
2024-03-16T00:57:07.277Z,67.00
2024-03-16T00:59:33.881Z,55.00
2024-03-16T01:02:00.535Z,57.00
2024-03-16T01:04:27.977Z,46.75
2024-03-16T01:06:54.611Z,51.75
2024-03-16T01:09:21.293Z,59.00
2024-03-16T01:11:47.842Z,54.75
2024-03-16T01:14:14.518Z,32.00
2024-03-16T01:16:41.090Z,45.50
2024-03-16T01:19:07.754Z,42.50
2024-03-16T01:21:34.375Z,46.75
2024-03-16T01:24:00.966Z,43.75
2024-03-16T01:26:27.551Z,35.25
2024-03-16T01:28:54.216Z,36.50
2024-03-16T01:31:20.826Z,40.25
2024-03-16T01:33:47.519Z,51.00
2024-03-16T01:36:15.330Z,33.25
2024-03-16T01:38:41.892Z,24.50
2024-03-16T01:41:08.600Z,27.50
2024-03-16T01:43:35.150Z,23.75
2024-03-16T01:46:02.099Z,26.00
2024-03-16T01:48:28.910Z,23.50
2024-03-16T01:50:56.201Z,20.50
2024-03-16T01:53:22.849Z,13.00
2024-03-16T01:55:49.544Z,14.00
2024-03-16T01:58:16.154Z,14.50
2024-03-16T02:00:48.683Z,16.50
2024-03-16T02:03:15.794Z,20.00
2024-03-16T02:05:47.530Z,12.25
2024-03-16T02:08:14.193Z,10.25
2024-03-16T02:10:40.932Z,16.00
2024-03-16T02:13:07.885Z,17.25
2024-03-16T02:15:34.800Z,17.25
2024-03-16T02:18:01.436Z,12.75
2024-03-16T02:20:28.071Z,13.50
2024-03-16T02:22:54.694Z,10.75
2024-03-16T02:25:21.432Z,14.50
2024-03-16T02:27:48.669Z,10.25
2024-03-16T02:30:16.174Z,13.00
2024-03-16T02:32:43.017Z,12.00
2024-03-16T02:35:10.381Z,14.00
2024-03-16T02:37:37.549Z,8.00
2024-03-16T02:40:05.375Z,9.00
2024-03-16T02:42:32.132Z,10.50
2024-03-16T02:44:58.781Z,11.50
2024-03-16T02:47:25.684Z,11.75
2024-03-16T02:49:52.361Z,12.50
2024-03-16T02:52:19.004Z,13.00
2024-03-16T02:54:45.645Z,9.00
2024-03-16T02:57:12.232Z,8.00
2024-03-16T02:59:38.775Z,9.75
2024-03-16T03:02:06.773Z,18.50
2024-03-16T03:04:33.402Z,14.00
2024-03-16T03:07:00.083Z,13.00
2024-03-16T03:09:27.586Z,10.25
2024-03-16T03:11:54.266Z,15.50
2024-03-16T03:14:21.386Z,17.75
2024-03-16T03:16:47.983Z,13.75
2024-03-16T03:19:14.564Z,14.50
2024-03-16T03:21:41.193Z,11.50
2024-03-16T03:24:08.643Z,14.00
2024-03-16T03:26:35.229Z,10.50
2024-03-16T03:29:02.227Z,14.00
2024-03-16T03:31:28.864Z,8.25
2024-03-16T03:33:55.540Z,9.25
2024-03-16T03:36:22.215Z,7.00
2024-03-16T03:38:49.236Z,8.50
2024-03-16T03:41:16.068Z,7.75
2024-03-16T03:43:48.328Z,9.50
2024-03-16T03:46:30.350Z,4.00
2024-03-16T03:49:12.733Z,6.75
2024-03-16T03:51:40.057Z,9.00
2024-03-16T03:54:07.831Z,9.75
2024-03-16T03:56:35.706Z,13.00
2024-03-16T03:59:03.493Z,19.00
2024-03-16T04:01:30.243Z,13.50
2024-03-16T04:03:57.344Z,11.50
2024-03-16T04:06:25.853Z,15.50
2024-03-16T04:08:52.606Z,13.00
2024-03-16T04:11:19.367Z,12.00
2024-03-16T04:13:46.008Z,13.50
2024-03-16T04:16:15.768Z,11.00
2024-03-16T04:18:43.025Z,12.00
2024-03-16T04:21:09.716Z,11.00
2024-03-16T04:23:36.330Z,10.00
2024-03-16T04:26:02.966Z,14.50
2024-03-16T04:28:29.593Z,9.00
2024-03-16T04:30:56.202Z,11.50
2024-03-16T04:33:22.835Z,6.25
2024-03-16T04:35:49.499Z,14.00
2024-03-16T04:38:16.025Z,8.75
2024-03-16T04:40:43.933Z,5.25
2024-03-16T04:43:10.694Z,9.50
2024-03-16T04:45:37.407Z,7.75
2024-03-16T04:48:05.914Z,4.50
2024-03-16T04:50:32.632Z,5.25
2024-03-16T04:52:59.175Z,7.00
2024-03-16T04:55:26.150Z,11.00
2024-03-16T04:57:52.748Z,12.25
2024-03-16T05:00:19.387Z,20.25
2024-03-16T05:02:46.026Z,14.00
2024-03-16T05:05:12.647Z,14.50
2024-03-16T05:07:39.524Z,16.75
2024-03-16T05:10:06.505Z,19.75
2024-03-16T05:12:33.199Z,13.50
2024-03-16T05:15:00.012Z,12.75
2024-03-16T05:17:27.304Z,13.00
2024-03-16T05:19:54.201Z,16.00
2024-03-16T05:22:20.838Z,20.00
2024-03-16T05:24:47.578Z,18.00
2024-03-16T05:27:16.367Z,15.00
2024-03-16T05:29:43.420Z,11.50
2024-03-16T05:32:10.134Z,12.50
2024-03-16T05:34:36.770Z,19.75
2024-03-16T05:37:03.444Z,13.75
2024-03-16T05:39:30.188Z,15.00
2024-03-16T05:41:56.925Z,13.75
2024-03-16T05:44:23.438Z,15.50
2024-03-16T05:46:49.961Z,13.75
2024-03-16T05:49:16.666Z,12.25
2024-03-16T05:51:44.332Z,14.50
2024-03-16T05:54:11.054Z,14.50
2024-03-16T05:56:38.639Z,12.25
2024-03-16T05:59:05.306Z,10.75
2024-03-16T06:01:32.057Z,11.25
2024-03-16T06:03:58.749Z,12.00
2024-03-16T06:06:25.961Z,14.75
2024-03-16T06:08:52.514Z,10.75
2024-03-16T06:11:19.181Z,14.50
2024-03-16T06:13:46.508Z,9.75
2024-03-16T06:16:13.110Z,11.00
2024-03-16T06:18:41.717Z,12.75
2024-03-16T06:21:11.172Z,10.00
2024-03-16T06:23:37.761Z,12.75
2024-03-16T06:26:05.215Z,9.75
2024-03-16T06:28:34.505Z,9.00
2024-03-16T06:31:09.048Z,10.75
2024-03-16T06:33:35.802Z,12.50
2024-03-16T06:36:02.354Z,14.00
2024-03-16T06:38:30.968Z,14.00
2024-03-16T06:40:57.604Z,13.75
2024-03-16T06:43:24.249Z,9.00
2024-03-16T06:45:51.806Z,10.50
2024-03-16T06:48:19.159Z,12.50
2024-03-16T06:50:47.822Z,12.50
2024-03-16T06:53:14.450Z,11.50
2024-03-16T06:55:42.110Z,13.50
2024-03-16T06:58:10.283Z,16.25
2024-03-16T07:00:37.285Z,11.00
2024-03-16T07:03:04.061Z,9.00
2024-03-16T07:05:30.604Z,15.67
2024-03-16T07:07:57.237Z,18.00
2024-03-16T07:10:24.445Z,18.75
2024-03-16T07:12:51.395Z,20.75
2024-03-16T07:15:18.070Z,14.75
2024-03-16T07:17:44.931Z,17.25
2024-03-16T07:20:12.460Z,15.00
2024-03-16T07:22:39.674Z,22.00
2024-03-16T07:25:06.792Z,16.00
2024-03-16T07:27:33.494Z,14.00
2024-03-16T07:30:00.626Z,17.25
2024-03-16T07:32:27.328Z,13.50
2024-03-16T07:34:53.969Z,18.00
2024-03-16T07:37:20.558Z,16.75
2024-03-16T07:39:47.184Z,18.75
2024-03-16T07:42:13.765Z,13.50
2024-03-16T07:44:42.064Z,15.50
2024-03-16T07:47:08.755Z,13.50
2024-03-16T07:49:35.457Z,12.50
2024-03-16T07:52:03.836Z,13.25
2024-03-16T07:54:30.749Z,11.75
2024-03-16T07:56:58.921Z,13.25
2024-03-16T07:59:26.818Z,14.50
2024-03-16T08:01:53.871Z,13.50
2024-03-16T08:04:20.529Z,11.50
2024-03-16T08:06:47.406Z,12.00
2024-03-16T08:09:14.144Z,14.50
2024-03-16T08:11:42.372Z,17.75
2024-03-16T08:14:09.814Z,12.75
2024-03-16T08:16:37.585Z,13.75
2024-03-16T08:19:04.483Z,10.50
2024-03-16T08:21:31.690Z,13.00
2024-03-16T08:23:58.377Z,20.75
2024-03-16T08:26:24.958Z,17.75
2024-03-16T08:28:51.540Z,14.00
2024-03-16T08:31:18.143Z,11.00
2024-03-16T08:33:44.750Z,11.00
2024-03-16T08:36:11.465Z,8.50
2024-03-16T08:38:38.424Z,12.00
2024-03-16T08:41:06.259Z,18.50
2024-03-16T08:43:33.314Z,16.75
2024-03-16T08:46:07.205Z,11.25
2024-03-16T08:48:34.142Z,13.50
2024-03-16T08:51:00.767Z,14.50
2024-03-16T08:53:27.723Z,14.00
2024-03-16T08:55:59.474Z,14.25
2024-03-16T08:58:26.421Z,12.25
2024-03-16T09:00:54.750Z,11.00
2024-03-16T09:03:22.585Z,12.25
2024-03-16T09:05:49.167Z,14.00
2024-03-16T09:08:15.986Z,17.00
2024-03-16T09:10:42.621Z,14.75
2024-03-16T09:13:09.610Z,12.75
2024-03-16T09:15:36.296Z,16.75
2024-03-16T09:18:05.097Z,13.75
2024-03-16T09:20:32.212Z,14.00
2024-03-16T09:23:00.847Z,23.75
2024-03-16T09:25:28.019Z,14.75
2024-03-16T09:27:54.639Z,22.75
2024-03-16T09:30:21.272Z,19.50
2024-03-16T09:32:47.912Z,15.00
2024-03-16T09:35:14.547Z,16.75
2024-03-16T09:37:41.220Z,15.25
2024-03-16T09:40:15.063Z,15.50
2024-03-16T09:42:42.008Z,16.25
